Time;durP1;ratioP1;P1;durP2;ratioP2;P2;SDS_P1;SDS_P2;PMS_P1;PMS_P2;Temp;Humidity;BMP_temperature;BMP_pressure;BME280_temperature;BME280_humidity;BME280_pressure;Samples;Min_cycle;Max_cycle;Signal;HPM_P1;HPM_P2
2022/12/28 00:01:53;;;;;;;;;9.50;7.50;;;;;10.98;77.27;101216.28;5056285;28;45327;-74
2022/12/28 00:04:18;;;;;;;;;12.00;11.00;;;;;11.01;77.45;101247.78;5057087;28;45386;-79
2022/12/28 00:06:46;;;;;;;;;14.75;10.00;;;;;10.96;77.26;101250.19;5056412;28;46098;-75
2022/12/28 00:09:12;;;;;;;;;11.75;10.75;;;;;10.82;77.91;101241.78;5056730;28;45439;-73
2022/12/28 00:11:37;;;;;;;;;13.00;11.00;;;;;10.70;78.13;101246.53;5056212;28;45411;-75
2022/12/28 00:14:03;;;;;;;;;11.75;11.00;;;;;10.69;78.80;101235.19;5057122;28;45328;-74
2022/12/28 00:16:35;;;;;;;;;13.00;11.50;;;;;10.65;78.56;101230.69;5056541;28;45458;-78
2022/12/28 00:19:03;;;;;;;;;12.50;11.00;;;;;10.64;79.03;101228.00;5056049;28;45369;-74
2022/12/28 00:21:30;;;;;;;;;14.75;13.00;;;;;10.61;79.53;101226.16;5056178;28;45495;-77
2022/12/28 00:23:58;;;;;;;;;11.50;10.75;;;;;10.62;79.72;101217.47;5055779;28;45482;-72
2022/12/28 00:26:25;;;;;;;;;12.00;11.50;;;;;10.58;79.21;101212.06;5056287;28;46028;-76
2022/12/28 00:28:51;;;;;;;;;11.50;10.75;;;;;10.53;79.18;101209.28;5055957;28;45447;-75
2022/12/28 00:31:16;;;;;;;;;13.75;12.25;;;;;10.50;79.23;101194.38;5056067;28;45249;-78
2022/12/28 00:33:42;;;;;;;;;11.50;11.50;;;;;10.49;79.04;101195.19;5055809;28;45395;-78
2022/12/28 00:36:11;;;;;;;;;11.50;10.75;;;;;10.44;79.03;101201.06;5056184;28;46060;-77
2022/12/28 00:38:37;;;;;;;;;17.00;12.50;;;;;10.14;79.09;101152.81;5056113;28;45450;-77
2022/12/28 00:41:04;;;;;;;;;14.50;13.00;;;;;10.41;79.50;101185.28;5056029;28;45481;-77
2022/12/28 00:43:30;;;;;;;;;10.25;10.00;;;;;10.40;79.59;101178.25;5055109;28;45478;-70
2022/12/28 00:45:56;;;;;;;;;14.25;13.00;;;;;10.40;79.37;101178.25;5055741;28;45319;-71
2022/12/28 00:48:22;;;;;;;;;12.25;12.00;;;;;10.37;79.25;101176.44;5056110;28;45517;-75
2022/12/28 00:50:47;;;;;;;;;14.00;12.50;;;;;10.36;79.75;101164.19;5038389;28;45477;-77
2022/12/28 00:53:13;;;;;;;;;14.00;13.75;;;;;10.30;79.94;101156.97;5055866;28;45209;-77
2022/12/28 00:55:39;;;;;;;;;13.25;12.75;;;;;10.28;79.81;101158.59;5056305;28;45316;-72
2022/12/28 00:58:05;;;;;;;;;13.00;12.00;;;;;10.25;79.65;101152.41;5056155;28;45555;-69
2022/12/28 01:00:32;;;;;;;;;18.00;15.50;;;;;10.29;80.72;101159.53;5055984;28;45494;-73
2022/12/28 01:02:58;;;;;;;;;11.50;11.00;;;;;10.28;80.35;101148.16;5055435;28;45407;-74
2022/12/28 01:05:24;;;;;;;;;15.00;13.75;;;;;10.12;80.70;101130.97;5055814;28;45430;-78
2022/12/28 01:07:49;;;;;;;;;10.50;10.00;;;;;10.27;80.70;101145.50;5055753;28;45431;-73
2022/12/28 01:10:15;;;;;;;;;13.25;11.75;;;;;10.30;80.49;101143.03;5055478;28;45550;-73
2022/12/28 01:12:41;;;;;;;;;11.25;11.25;;;;;10.04;80.22;101093.22;5055415;28;45467;-73
2022/12/28 01:15:09;;;;;;;;;12.00;11.75;;;;;10.36;79.97;101135.44;5055819;28;46102;-72
2022/12/28 01:17:34;;;;;;;;;11.50;11.00;;;;;10.40;79.74;101120.81;5055179;28;45396;-76
2022/12/28 01:20:00;;;;;;;;;7.75;6.75;;;;;10.45;79.56;101127.13;5056625;28;45399;-75
2022/12/28 01:22:27;;;;;;;;;13.25;11.75;;;;;10.36;79.10;101098.88;5060159;28;45433;-78
2022/12/28 01:24:53;;;;;;;;;13.00;11.50;;;;;10.57;78.86;101113.66;5060149;28;46157;-77
2022/12/28 01:27:18;;;;;;;;;9.75;8.75;;;;;10.62;78.73;101114.69;5059928;28;45319;-73
2022/12/28 01:29:44;;;;;;;;;11.75;9.50;;;;;10.65;78.66;101112.22;5060018;28;45516;-78
2022/12/28 01:32:09;;;;;;;;;12.25;9.75;;;;;10.66;78.46;101109.63;5060485;28;45244;-68
2022/12/28 01:34:35;;;;;;;;;8.50;8.00;;;;;10.70;78.28;101110.66;5059675;28;45502;-73
2022/12/28 01:37:01;;;;;;;;;8.75;8.75;;;;;10.74;77.86;101110.84;5059995;28;45289;-75
2022/12/28 01:39:26;;;;;;;;;6.00;6.00;;;;;10.79;77.62;101108.41;5060081;28;45447;-74
2022/12/28 01:41:52;;;;;;;;;6.50;6.50;;;;;10.84;77.25;101113.78;5059982;28;45470;-74
2022/12/28 01:44:23;;;;;;;;;7.25;6.00;;;;;10.85;77.25;101121.69;5058989;28;45866;-69
2022/12/28 01:46:55;;;;;;;;;7.25;7.25;;;;;10.89;77.30;101120.97;5058028;28;45477;-71
2022/12/28 01:49:49;;;;;;;;;7.00;6.00;;;;;10.91;76.60;101126.28;5058875;28;45490;-72
2022/12/28 01:52:29;;;;;;;;;6.00;6.00;;;;;10.93;76.63;101130.72;5058639;28;45495;-76
2022/12/28 01:55:05;;;;;;;;;10.50;9.75;;;;;10.93;76.45;101128.09;5058553;28;45806;-77
2022/12/28 01:57:34;;;;;;;;;7.25;7.25;;;;;10.64;76.09;101071.22;5058670;28;45285;-76
2022/12/28 02:00:08;;;;;;;;;8.50;7.25;;;;;10.98;76.08;101124.78;5058192;28;45396;-75
2022/12/28 02:02:34;;;;;;;;;5.50;4.75;;;;;11.00;75.95;101120.50;5058859;28;45382;-75
2022/12/28 02:05:01;;;;;;;;;5.00;5.00;;;;;10.83;75.88;101086.78;5058418;28;45387;-70
2022/12/28 02:07:42;;;;;;;;;5.00;5.00;;;;;11.09;75.63;101118.22;5058413;28;45454;-69
2022/12/28 02:10:09;;;;;;;;;6.00;5.75;;;;;11.11;75.33;101122.66;5043155;28;45309;-73
2022/12/28 02:12:35;;;;;;;;;6.50;6.00;;;;;11.10;75.29;101097.38;5053120;28;45487;-77
2022/12/28 02:15:01;;;;;;;;;5.75;5.25;;;;;11.23;74.61;101108.28;5057202;28;45521;-71
2022/12/28 02:17:27;;;;;;;;;6.00;5.25;;;;;11.28;74.60;101107.63;5057429;28;45517;-74
2022/12/28 02:19:52;;;;;;;;;6.00;6.00;;;;;11.32;74.16;101108.59;5058062;28;45498;-73
2022/12/28 02:22:55;;;;;;;;;6.00;5.75;;;;;11.34;74.12;101104.34;5057759;28;45499;-71
2022/12/28 02:25:37;;;;;;;;;8.75;6.00;;;;;11.36;73.78;101097.44;5058299;28;46247;-74
2022/12/28 02:28:38;;;;;;;;;7.75;7.00;;;;;11.33;73.90;101106.03;5057667;28;45663;-74
2022/12/28 02:31:11;;;;;;;;;6.00;6.00;;;;;11.29;73.73;101103.25;5017690;28;45339;-78
2022/12/28 02:33:49;;;;;;;;;6.00;6.00;;;;;11.26;73.80;101101.44;5056673;28;45225;-79
2022/12/28 02:36:26;;;;;;;;;6.25;6.00;;;;;11.08;73.77;101074.59;5057738;28;46180;-77
2022/12/28 02:38:58;;;;;;;;;6.75;6.00;;;;;11.21;74.07;101104.72;5057579;28;45434;-76
2022/12/28 02:41:25;;;;;;;;;6.00;5.50;;;;;11.16;74.12;101099.34;5057804;28;45387;-77
2022/12/28 02:43:52;;;;;;;;;6.00;6.00;;;;;11.16;73.81;101096.72;5058020;28;45296;-76
2022/12/28 02:52:22;;;;;;;;;5.00;4.50;;;;;11.15;74.04;101090.56;5057262;28;45583;-77
2022/12/28 02:58:20;;;;;;;;;6.00;5.00;;;;;11.12;73.65;101084.31;5056958;28;46333;-76
2022/12/28 03:00:55;;;;;;;;;9.50;8.00;;;;;11.12;73.86;101079.09;5033846;28;45545;-73
2022/12/28 03:03:51;;;;;;;;;8.00;7.25;;;;;11.04;73.84;101076.25;5057728;28;45485;-73
2022/12/28 03:09:18;;;;;;;;;6.00;5.00;;;;;11.00;73.83;101073.44;5057326;28;45725;-76
2022/12/28 03:11:57;;;;;;;;;7.25;6.00;;;;;10.98;74.10;101067.25;5056316;28;45577;-76
2022/12/28 03:14:31;;;;;;;;;9.00;7.00;;;;;10.99;73.74;101069.94;5057501;28;45500;-75
2022/12/28 03:31:10;;;;;;;;;5.75;5.50;;;;;11.12;72.35;101005.88;5056751;28;45771;-72
2022/12/28 03:33:44;;;;;;;;;8.00;6.00;;;;;11.20;72.04;101017.53;5056903;28;45473;-74
2022/12/28 03:36:17;;;;;;;;;5.00;4.75;;;;;11.41;71.43;101024.34;5055815;28;45450;-76
2022/12/28 03:39:07;;;;;;;;;5.00;5.00;;;;;11.47;71.61;101024.53;5056083;28;45478;-76
2022/12/28 03:41:49;;;;;;;;;5.50;5.50;;;;;11.51;71.04;101029.03;5056822;28;45370;-75
2022/12/28 03:44:24;;;;;;;;;5.75;4.25;;;;;11.52;71.19;101026.47;5055788;28;45421;-75
2022/12/28 03:47:06;;;;;;;;;6.00;5.00;;;;;11.25;71.22;100992.41;5057075;28;45353;-70
2022/12/28 03:49:32;;;;;;;;;5.00;5.00;;;;;11.50;71.25;101038.63;5056599;28;45416;-72
2022/12/28 03:52:00;;;;;;;;;5.75;5.25;;;;;11.48;71.11;101036.75;5058202;28;45958;-70
2022/12/28 03:54:26;;;;;;;;;5.25;5.00;;;;;11.43;71.22;101027.88;5064544;28;45550;-70
2022/12/28 03:56:51;;;;;;;;;5.50;5.00;;;;;11.07;71.28;100970.88;5045734;28;45525;-69
2022/12/28 03:59:18;;;;;;;;;6.75;6.00;;;;;11.51;70.89;101021.19;5052142;28;45501;-74
2022/12/28 04:01:43;;;;;;;;;6.00;6.00;;;;;11.50;70.85;101027.28;5055900;28;45461;-70
2022/12/28 04:04:10;;;;;;;;;4.75;4.00;;;;;11.18;70.64;100951.22;5057195;28;45533;-73
2022/12/28 04:06:35;;;;;;;;;6.00;6.00;;;;;11.29;70.63;100956.78;5057572;28;45207;-74
2022/12/28 04:09:01;;;;;;;;;6.25;6.25;;;;;11.64;70.56;101006.78;5057696;28;45220;-68
2022/12/28 04:11:27;;;;;;;;;6.00;5.00;;;;;11.67;70.40;101009.50;5057305;28;45580;-78
2022/12/28 04:13:52;;;;;;;;;6.00;6.00;;;;;11.65;70.27;101005.94;5055959;28;45466;-75
2022/12/28 04:16:18;;;;;;;;;6.00;5.75;;;;;11.64;70.36;101002.44;5056576;28;45533;-77
2022/12/28 04:18:44;;;;;;;;;5.75;4.75;;;;;11.70;70.19;101007.88;5056629;28;45367;-71
2022/12/28 04:21:11;;;;;;;;;6.25;5.25;;;;;11.73;69.88;101001.84;5056303;28;45982;-76
2022/12/28 04:23:37;;;;;;;;;6.00;4.75;;;;;11.63;69.17;100961.41;5053822;28;45171;-68
2022/12/28 04:26:06;;;;;;;;;3.25;2.50;;;;;11.87;68.77;100979.63;5041677;28;45502;-70
2022/12/28 04:28:32;;;;;;;;;4.25;4.00;;;;;11.93;68.62;100982.47;5056379;28;45435;-77
2022/12/28 04:30:59;;;;;;;;;5.00;4.00;;;;;12.00;67.73;100973.09;5056042;28;46108;-77
2022/12/28 04:33:25;;;;;;;;;4.00;3.50;;;;;12.14;66.85;100966.53;5055669;28;45506;-76
2022/12/28 04:35:51;;;;;;;;;5.00;5.00;;;;;12.16;66.76;100965.72;5056213;28;45428;-77
2022/12/28 04:38:17;;;;;;;;;6.00;3.25;;;;;12.10;66.96;100941.09;5056526;28;45313;-77
2022/12/28 04:40:43;;;;;;;;;5.00;3.75;;;;;12.31;65.91;100953.94;5056418;28;45454;-77
2022/12/28 04:43:09;;;;;;;;;6.00;5.00;;;;;12.32;65.95;100946.97;5055443;28;45327;-77
2022/12/28 04:45:35;;;;;;;;;4.25;4.00;;;;;12.24;65.46;100923.16;5055980;28;45424;-74
2022/12/28 04:48:00;;;;;;;;;2.50;2.50;;;;;12.39;65.57;100940.16;5055570;28;45479;-70
2022/12/28 04:50:26;;;;;;;;;4.00;3.75;;;;;12.39;65.67;100933.19;5050491;28;46106;-76
2022/12/28 04:52:51;;;;;;;;;4.00;4.00;;;;;12.37;65.53;100929.63;5055474;28;47121;-76
2022/12/28 04:55:17;;;;;;;;;4.67;3.33;;;;;12.36;65.29;100927.00;5056183;28;45486;-78
2022/12/28 04:57:44;;;;;;;;;3.00;1.75;;;;;12.33;65.21;100935.63;5060020;28;45379;-77
2022/12/28 05:00:12;;;;;;;;;4.00;3.00;;;;;12.34;65.55;100932.19;5059678;28;45438;-75
2022/12/28 05:02:38;;;;;;;;;2.00;2.00;;;;;12.34;65.25;100934.81;5058563;28;45459;-75
2022/12/28 05:05:04;;;;;;;;;5.00;4.25;;;;;12.33;65.28;100930.41;5059359;28;45648;-77
2022/12/28 05:07:30;;;;;;;;;4.50;3.25;;;;;12.39;64.97;100929.69;5059986;28;45509;-76
2022/12/28 05:09:58;;;;;;;;;3.00;3.00;;;;;12.42;64.83;100924.56;5045986;28;45997;-70
2022/12/28 05:12:24;;;;;;;;;4.00;3.00;;;;;12.41;64.48;100915.78;5056714;28;45248;-75
2022/12/28 05:14:50;;;;;;;;;2.00;2.00;;;;;12.47;64.37;100915.97;5041503;28;45477;-77
2022/12/28 05:17:15;;;;;;;;;5.00;3.00;;;;;12.54;63.93;100915.28;5059088;28;46077;-76
2022/12/28 05:19:41;;;;;;;;;4.25;3.00;;;;;12.64;63.66;100905.94;5059930;28;45888;-74
2022/12/28 05:22:10;;;;;;;;;3.00;3.00;;;;;12.63;63.65;100906.78;5040832;28;45414;-78
2022/12/28 05:24:37;;;;;;;;;4.00;3.67;;;;;12.65;63.43;100899.88;5059644;28;45414;-77
2022/12/28 05:27:03;;;;;;;;;5.00;4.00;;;;;12.65;63.51;100894.63;5059299;28;45296;-78
2022/12/28 05:29:28;;;;;;;;;4.50;4.25;;;;;12.63;63.56;100895.41;5045583;28;46082;-75
2022/12/28 05:31:54;;;;;;;;;1.67;1.00;;;;;12.63;63.38;100892.78;5055678;28;45613;-77
2022/12/28 05:34:19;;;;;;;;;7.75;5.25;;;;;12.60;63.53;100896.22;5058812;28;45581;-77
2022/12/28 05:36:45;;;;;;;;;5.25;5.25;;;;;12.37;64.10;100866.75;5059193;28;45288;-76
2022/12/28 05:39:10;;;;;;;;;9.00;8.00;;;;;12.54;64.01;100898.69;5058343;28;45534;-78
2022/12/28 05:41:36;;;;;;;;;7.50;6.00;;;;;12.47;64.21;100887.16;5058521;28;45450;-75
2022/12/28 05:44:02;;;;;;;;;4.00;4.00;;;;;12.45;64.40;100895.81;5036944;28;45929;-77
2022/12/28 05:46:30;;;;;;;;;5.00;4.00;;;;;12.36;64.35;100875.47;5047997;28;45577;-71
2022/12/28 05:48:56;;;;;;;;;6.00;5.50;;;;;12.39;64.50;100886.03;5059933;28;46010;-78
2022/12/28 05:51:24;;;;;;;;;8.00;6.00;;;;;12.36;64.52;100885.97;5060010;28;45310;-78
2022/12/28 05:53:50;;;;;;;;;5.50;5.25;;;;;12.31;64.80;100893.69;5043608;28;45355;-77
2022/12/28 05:56:18;;;;;;;;;8.67;7.00;;;;;12.29;64.75;100884.00;5058935;28;45399;-75
2022/12/28 05:58:46;;;;;;;;;10.00;9.50;;;;;12.27;65.17;100880.44;5058922;28;45467;-78
2022/12/28 06:01:17;;;;;;;;;14.25;12.50;;;;;12.23;64.74;100878.59;5058197;28;45315;-78
2022/12/28 06:03:44;;;;;;;;;5.50;5.50;;;;;12.10;64.89;100859.91;5058916;28;45971;-76
2022/12/28 06:06:15;;;;;;;;;6.00;4.00;;;;;12.16;65.31;100874.91;5058477;28;45494;-78
2022/12/28 06:08:42;;;;;;;;;13.25;11.75;;;;;12.16;64.91;100871.41;5058174;28;45585;-75
2022/12/28 06:11:09;;;;;;;;;9.50;7.75;;;;;12.10;65.03;100870.38;5058325;28;45493;-77
2022/12/28 06:13:36;;;;;;;;;26.75;23.25;;;;;12.08;65.28;100872.06;5057203;28;45424;-74
2022/12/28 06:16:12;;;;;;;;;20.00;16.00;;;;;12.05;65.37;100858.88;5058319;28;45431;-76
2022/12/28 06:18:37;;;;;;;;;13.00;11.25;;;;;12.02;65.25;100864.03;5058069;28;45169;-78
2022/12/28 06:21:08;;;;;;;;;14.25;12.25;;;;;12.02;65.20;100869.28;5058315;28;45330;-72
2022/12/28 06:23:34;;;;;;;;;3.67;3.00;;;;;12.02;64.99;100866.66;5057759;28;45450;-77
2022/12/28 06:26:02;;;;;;;;;4.00;4.00;;;;;12.02;65.11;100860.53;5058483;28;45257;-72
2022/12/28 06:28:28;;;;;;;;;6.75;6.00;;;;;12.01;64.81;100864.00;5058265;28;45434;-78
2022/12/28 06:31:11;;;;;;;;;9.00;8.50;;;;;12.02;64.95;100864.03;5058270;28;45586;-78
2022/12/28 06:33:37;;;;;;;;;7.50;6.00;;;;;12.03;64.89;100860.56;5058296;28;45307;-77
2022/12/28 06:36:03;;;;;;;;;5.00;5.00;;;;;12.03;64.85;100855.31;5057438;28;45489;-79
2022/12/28 06:38:33;;;;;;;;;4.00;3.00;;;;;11.85;64.77;100818.13;5040461;28;46346;-78
2022/12/28 06:41:07;;;;;;;;;5.00;5.00;;;;;12.03;64.97;100860.56;5058384;28;45303;-79
2022/12/28 06:43:34;;;;;;;;;3.50;3.00;;;;;12.02;64.98;100852.69;5058513;28;45497;-77
2022/12/28 06:46:00;;;;;;;;;3.67;3.67;;;;;11.99;64.74;100853.47;5054661;28;45688;-78
2022/12/28 06:48:27;;;;;;;;;4.00;4.00;;;;;11.97;65.08;100854.28;5040161;28;45643;-78
2022/12/28 06:50:57;;;;;;;;;3.00;2.75;;;;;11.98;64.77;100856.94;5058387;28;45372;-72
2022/12/28 06:53:25;;;;;;;;;3.00;2.75;;;;;11.99;64.55;100857.81;5048069;28;45398;-78
2022/12/28 06:55:59;;;;;;;;;5.00;4.00;;;;;11.98;64.86;100858.66;5054989;28;45645;-77
2022/12/28 06:58:26;;;;;;;;;3.00;2.25;;;;;11.99;64.71;100860.44;5043353;28;45427;-78
2022/12/28 07:00:53;;;;;;;;;3.00;3.00;;;;;11.96;64.59;100861.25;5051482;28;45337;-79
2022/12/28 07:03:20;;;;;;;;;3.00;3.00;;;;;11.92;64.41;100852.41;5043039;28;45372;-78
2022/12/28 07:05:45;;;;;;;;;4.25;3.00;;;;;11.97;64.27;100863.00;5060042;28;45395;-72
2022/12/28 07:08:11;;;;;;;;;3.33;3.33;;;;;11.95;64.78;100862.06;5057165;28;46097;-79
2022/12/28 07:10:36;;;;;;;;;5.33;3.67;;;;;11.90;64.77;100856.72;5059114;28;45473;-75
2022/12/28 07:13:03;;;;;;;;;4.75;4.00;;;;;11.91;64.85;100858.47;5058125;28;45549;-69
2022/12/28 07:15:28;;;;;;;;;4.00;4.00;;;;;11.92;64.73;100843.69;5060391;28;45335;-78
2022/12/28 07:17:54;;;;;;;;;8.00;7.00;;;;;11.56;64.70;100792.00;5044367;28;45518;-77
2022/12/28 07:20:20;;;;;;;;;3.00;3.00;;;;;11.84;64.96;100848.66;5057538;28;45255;-79
2022/12/28 07:22:45;;;;;;;;;4.00;4.00;;;;;11.80;65.08;100851.09;5057529;28;45212;-74
2022/12/28 07:25:11;;;;;;;;;6.50;5.50;;;;;11.69;65.43;100837.72;5057696;28;45352;-75
2022/12/28 07:27:36;;;;;;;;;15.25;13.25;;;;;11.66;65.56;100853.34;5056695;28;45796;-79
2022/12/28 07:30:03;;;;;;;;;96.67;76.00;;;;;11.35;65.67;100810.53;5057502;28;45181;-79
2022/12/28 07:32:28;;;;;;;;;70.25;54.75;;;;;11.51;66.05;100859.84;5057477;28;45357;-75
2022/12/28 07:34:54;;;;;;;;;25.25;22.50;;;;;11.39;66.13;100849.00;5057405;28;45478;-78
2022/12/28 07:37:19;;;;;;;;;15.25;14.75;;;;;11.44;65.78;100859.59;5056271;28;46082;-74
2022/12/28 07:39:45;;;;;;;;;9.25;8.25;;;;;11.45;66.09;100858.78;5056658;28;45537;-75
2022/12/28 07:42:11;;;;;;;;;11.50;10.25;;;;;11.39;66.25;100845.53;5056927;28;45799;-78
2022/12/28 07:44:40;;;;;;;;;14.75;14.75;;;;;11.17;66.09;100815.19;5056376;28;45572;-76
2022/12/28 07:47:07;;;;;;;;;7.75;6.50;;;;;11.47;66.00;100846.63;5056578;28;45521;-79
2022/12/28 07:49:33;;;;;;;;;5.00;4.00;;;;;11.53;65.72;100854.69;5056194;28;45466;-72
2022/12/28 07:51:58;;;;;;;;;4.00;3.00;;;;;11.59;65.43;100843.53;5057142;28;46483;-74
2022/12/28 07:54:24;;;;;;;;;16.25;16.25;;;;;11.64;65.23;100857.59;5056425;28;45311;-77
2022/12/28 07:56:50;;;;;;;;;14.00;12.00;;;;;11.64;65.38;100848.06;5057388;28;46196;-78
2022/12/28 07:59:18;;;;;;;;;9.00;7.25;;;;;11.67;65.39;100845.50;5052020;28;45472;-78
2022/12/28 08:01:43;;;;;;;;;3.75;3.00;;;;;11.32;65.60;100786.88;5020986;28;45442;-74
2022/12/28 08:04:12;;;;;;;;;5.75;3.25;;;;;11.44;65.38;100794.22;5054571;28;45461;-77
2022/12/28 08:06:40;;;;;;;;;2.75;2.75;;;;;11.76;64.84;100842.31;5058040;28;45483;-75
2022/12/28 08:09:08;;;;;;;;;11.00;8.75;;;;;11.72;64.62;100823.00;5041263;28;45966;-72
2022/12/28 08:11:36;;;;;;;;;20.75;16.25;;;;;11.74;64.49;100818.69;5056939;28;45411;-77
2022/12/28 08:14:02;;;;;;;;;8.00;8.00;;;;;11.87;65.05;100838.25;5056140;28;45545;-79
2022/12/28 08:16:31;;;;;;;;;5.00;4.00;;;;;11.75;64.96;100807.38;5056374;28;46032;-79
2022/12/28 08:18:57;;;;;;;;;3.00;2.75;;;;;12.00;63.94;100829.06;5056103;28;45680;-77
2022/12/28 08:21:28;;;;;;;;;21.75;17.75;;;;;12.08;64.00;100826.69;5041599;28;45542;-78
2022/12/28 08:23:54;;;;;;;;;14.50;12.50;;;;;12.14;64.13;100827.72;5055932;28;45405;-78
2022/12/28 08:26:26;;;;;;;;;8.75;6.75;;;;;12.19;63.82;100830.47;5055886;28;46107;-78
2022/12/28 08:28:54;;;;;;;;;4.25;4.25;;;;;12.25;63.73;100828.00;5056326;28;47014;-79
2022/12/28 08:31:22;;;;;;;;;36.25;34.00;;;;;12.29;63.25;100827.25;5054541;28;45552;-78
2022/12/28 08:33:48;;;;;;;;;13.00;12.25;;;;;12.29;63.21;100811.53;5040949;28;45557;-79
2022/12/28 08:36:14;;;;;;;;;8.25;7.75;;;;;12.43;63.45;100829.38;5055764;28;45867;-73
2022/12/28 08:38:42;;;;;;;;;21.25;20.50;;;;;12.17;62.78;100778.91;5055885;28;45478;-79
2022/12/28 08:41:15;;;;;;;;;6.75;6.50;;;;;12.57;62.50;100824.50;5039779;28;45371;-69
2022/12/28 08:43:41;;;;;;;;;3.50;3.25;;;;;12.68;62.64;100816.06;5042715;28;45338;-79
2022/12/28 08:46:12;;;;;;;;;5.50;5.00;;;;;11.91;61.71;100666.50;5041255;28;45378;-76
2022/12/28 08:48:38;;;;;;;;;5.75;5.50;;;;;12.95;61.70;100820.22;5058508;28;45500;-77
2022/12/28 08:51:09;;;;;;;;;3.33;2.67;;;;;13.09;60.47;100826.72;5028110;28;45439;-77
2022/12/28 08:53:35;;;;;;;;;0.00;0.00;;;;;12.90;60.26;100765.06;5057030;28;45453;-78
2022/12/28 08:56:05;;;;;;;;;9.25;7.75;;;;;13.24;61.02;100809.56;5056281;28;45368;-79
2022/12/28 08:58:31;;;;;;;;;74.00;60.25;;;;;13.28;60.84;100812.28;5055676;28;45320;-75
2022/12/28 09:01:07;;;;;;;;;8.25;7.50;;;;;13.29;60.75;100810.53;5042959;28;45313;-78
2022/12/28 09:03:37;;;;;;;;;9.50;7.50;;;;;13.30;60.58;100801.84;5056988;28;45482;-76
2022/12/28 09:06:05;;;;;;;;;8.75;8.00;;;;;13.33;60.44;100797.56;5056587;28;45429;-79
2022/12/28 09:08:31;;;;;;;;;6.00;5.50;;;;;13.35;59.90;100788.81;5055803;28;45395;-77
2022/12/28 09:11:01;;;;;;;;;5.67;5.00;;;;;13.43;59.72;100775.03;5056452;28;45598;-76
2022/12/28 09:13:27;;;;;;;;;4.33;4.00;;;;;13.63;59.19;100782.47;5055995;28;45395;-78
2022/12/28 09:16:01;;;;;;;;;3.33;3.33;;;;;13.82;58.95;100804.72;5055833;28;46240;-79
2022/12/28 09:18:26;;;;;;;;;4.67;4.00;;;;;13.93;58.17;100795.34;5054357;28;45422;-79
2022/12/28 09:20:52;;;;;;;;;5.00;5.00;;;;;14.00;58.19;100797.22;5055431;28;45437;-78
2022/12/28 09:23:18;;;;;;;;;3.67;3.00;;;;;14.10;58.13;100780.78;5057236;28;45287;-78
2022/12/28 09:25:43;;;;;;;;;5.75;4.25;;;;;14.20;57.67;100783.59;5056895;28;45423;-79
2022/12/28 09:28:09;;;;;;;;;3.33;3.33;;;;;14.78;56.78;100784.69;5055054;28;45553;-72
2022/12/28 09:30:34;;;;;;;;;4.00;3.67;;;;;15.65;55.27;100784.19;5056507;28;45212;-75
2022/12/28 09:35:44;;;;;;;;;6.00;4.00;;;;;16.98;50.99;100776.81;5057474;28;45883;-69
2022/12/28 09:38:09;;;;;;;;;4.00;3.67;;;;;17.35;49.46;100769.16;5021677;28;45344;-79
2022/12/28 09:40:38;;;;;;;;;3.67;2.67;;;;;17.62;47.94;100772.81;5056711;28;45298;-78
2022/12/28 09:43:04;;;;;;;;;3.00;3.00;;;;;17.74;49.90;100740.28;5060203;28;45343;-73
2022/12/28 09:45:32;;;;;;;;;4.00;3.67;;;;;18.27;46.48;100779.22;5059800;28;46319;-76
2022/12/28 09:48:05;;;;;;;;;4.00;4.00;;;;;18.50;47.56;100758.09;5060304;28;45285;-78
2022/12/28 09:50:34;;;;;;;;;3.67;2.00;;;;;18.82;45.76;100767.84;5061051;28;45394;-76
2022/12/28 09:53:21;;;;;;;;;4.00;4.00;;;;;19.26;46.17;100781.03;5060435;28;45483;-78
2022/12/28 09:56:03;;;;;;;;;4.00;4.00;;;;;19.48;44.51;100779.22;5059004;28;46058;-78
2022/12/28 09:58:31;;;;;;;;;3.00;3.00;;;;;19.57;43.96;100762.38;5059315;28;45318;-74
2022/12/28 10:01:00;;;;;;;;;6.00;6.00;;;;;19.74;42.42;100765.03;5059687;28;45491;-71
2022/12/28 10:03:32;;;;;;;;;2.00;2.00;;;;;19.97;44.03;100774.63;5060094;28;45588;-78
2022/12/28 10:05:58;;;;;;;;;3.33;3.33;;;;;20.10;41.36;100781.63;5059573;28;46105;-76
2022/12/28 10:08:26;;;;;;;;;2.00;2.00;;;;;20.15;40.70;100781.59;5058937;28;45396;-79
2022/12/28 10:10:54;;;;;;;;;2.00;2.00;;;;;19.99;41.53;100786.97;5040897;28;45418;-76
2022/12/28 10:13:22;;;;;;;;;3.00;3.00;;;;;20.02;43.21;100776.38;5058650;28;45255;-76
2022/12/28 10:15:49;;;;;;;;;2.33;2.33;;;;;19.82;41.61;100789.72;5058635;28;45557;-76
2022/12/28 10:18:24;;;;;;;;;3.00;3.00;;;;;19.73;41.45;100799.47;5059038;28;45256;-76
2022/12/28 10:20:50;;;;;;;;;3.67;2.67;;;;;19.74;42.65;100788.00;5059136;28;45536;-79
2022/12/28 10:23:22;;;;;;;;;3.00;2.00;;;;;19.88;42.26;100796.78;5058646;28;45453;-75
2022/12/28 10:25:52;;;;;;;;;5.00;5.00;;;;;19.85;41.19;100791.47;5058319;28;45552;-76
2022/12/28 10:28:21;;;;;;;;;5.00;5.00;;;;;19.93;41.90;100784.34;5058324;28;45483;-73
2022/12/28 10:31:08;;;;;;;;;3.00;3.00;;;;;20.09;42.67;100789.59;5058432;28;45539;-74
2022/12/28 10:33:39;;;;;;;;;6.00;6.00;;;;;20.11;41.58;100785.16;5039392;28;45480;-76
2022/12/28 10:36:11;;;;;;;;;3.00;3.00;;;;;20.11;41.58;100780.72;5058205;28;46187;-73
2022/12/28 10:38:39;;;;;;;;;3.00;2.33;;;;;19.91;41.16;100767.59;5058037;28;45396;-77
2022/12/28 10:41:09;;;;;;;;;4.33;3.00;;;;;19.98;41.30;100779.06;5058606;28;45359;-77
2022/12/28 10:43:39;;;;;;;;;3.00;3.00;;;;;19.84;40.78;100779.13;5058196;28;45287;-75
2022/12/28 10:46:13;;;;;;;;;2.00;2.00;;;;;19.82;41.26;100776.47;5039508;28;45898;-74
2022/12/28 10:48:45;;;;;;;;;2.33;2.33;;;;;19.76;40.41;100765.91;5045659;28;45438;-77
2022/12/28 10:51:16;;;;;;;;;3.33;2.67;;;;;19.56;40.48;100757.13;5038127;28;45570;-73
2022/12/28 10:53:50;;;;;;;;;1.00;1.00;;;;;19.54;40.68;100749.16;5037369;28;45395;-76
2022/12/28 10:56:20;;;;;;;;;3.00;3.00;;;;;19.58;40.35;100745.63;5042153;28;46310;-76
2022/12/28 10:58:48;;;;;;;;;4.00;3.00;;;;;19.61;40.76;100735.00;5056934;28;45304;-69
2022/12/28 11:01:13;;;;;;;;;2.33;2.00;;;;;19.65;40.17;100738.50;5057873;28;45510;-69
2022/12/28 11:03:57;;;;;;;;;2.67;2.00;;;;;19.67;39.56;100742.91;5056835;28;45527;-72
2022/12/28 11:06:31;;;;;;;;;2.33;2.33;;;;;19.40;39.38;100720.06;5056883;28;45452;-70
2022/12/28 11:09:11;;;;;;;;;4.00;4.00;;;;;19.32;39.59;100750.09;5057293;28;45610;-76
2022/12/28 11:11:38;;;;;;;;;3.00;2.67;;;;;19.42;39.47;100746.56;5057413;28;45486;-74
2022/12/28 11:14:13;;;;;;;;;2.00;2.00;;;;;19.48;39.16;100738.59;5056655;28;45489;-72
2022/12/28 11:16:39;;;;;;;;;5.00;5.00;;;;;19.37;39.62;100737.75;5056959;28;46085;-73
2022/12/28 11:19:05;;;;;;;;;1.67;1.67;;;;;19.45;39.07;100743.88;5056968;28;45302;-76
2022/12/28 11:21:32;;;;;;;;;5.00;3.00;;;;;19.35;38.83;100728.91;5057236;28;45437;-76
2022/12/28 11:23:58;;;;;;;;;3.00;2.00;;;;;19.35;38.43;100735.09;5056263;28;45533;-75
2022/12/28 11:26:27;;;;;;;;;1.33;1.33;;;;;19.39;38.56;100739.50;5056135;28;45930;-78
2022/12/28 11:28:53;;;;;;;;;3.33;3.00;;;;;19.38;39.05;100721.84;5056793;28;45600;-76
2022/12/28 11:31:36;;;;;;;;;2.00;2.00;;;;;19.41;39.33;100716.53;5056898;28;45458;-79
2022/12/28 11:34:05;;;;;;;;;3.00;3.00;;;;;19.58;38.79;100710.28;5057221;28;45359;-75
2022/12/28 11:36:39;;;;;;;;;4.00;2.00;;;;;19.54;39.02;100717.38;5056731;28;46134;-73
2022/12/28 11:39:26;;;;;;;;;3.00;1.33;;;;;19.43;38.96;100703.28;5056823;28;45375;-74
2022/12/28 11:41:56;;;;;;;;;1.00;1.00;;;;;19.49;38.69;100716.50;5057045;28;45465;-72
2022/12/28 11:44:43;;;;;;;;;3.67;3.00;;;;;19.54;39.07;100722.66;5056292;28;45610;-77
2022/12/28 11:47:14;;;;;;;;;2.00;2.00;;;;;19.47;39.12;100721.78;5055473;28;45197;-70
2022/12/28 11:49:42;;;;;;;;;2.00;2.00;;;;;19.54;39.34;100700.59;5057077;28;45473;-79
2022/12/28 11:52:13;;;;;;;;;2.00;2.00;;;;;19.53;39.33;100714.72;5056708;28;45498;-73
2022/12/28 11:54:55;;;;;;;;;3.67;3.00;;;;;19.50;38.78;100709.41;5056045;28;45578;-79
2022/12/28 11:57:42;;;;;;;;;3.00;3.00;;;;;19.53;39.37;100688.22;5055098;28;45503;-77
2022/12/28 12:00:19;;;;;;;;;3.00;2.00;;;;;19.47;39.24;100689.13;5055975;28;45467;-77